TimeCST,TemperatureF,Dew PointF,Humidity,Sea Level PressureIn,VisibilityMPH,Wind Direction,Wind SpeedMPH,Gust SpeedMPH,PrecipitationIn,Events,Conditions,WindDirDegrees,DateUTC
12:15 AM,28.4,12.2,51,30.20,10.0,South,5.8,-,N/A,,Clear,170,2012-12-12 06:15:00
12:35 AM,26.6,12.2,55,30.20,10.0,South,4.6,-,N/A,,Clear,180,2012-12-12 06:35:00
12:55 AM,28.4,12.2,51,30.20,10.0,Calm,Calm,-,N/A,,Clear,0,2012-12-12 06:55:00
1:15 AM,28.4,12.2,51,30.19,10.0,Calm,Calm,-,N/A,,Clear,0,2012-12-12 07:15:00
1:16 AM,28.4,12.2,51,30.19,10.0,Calm,Calm,-,N/A,,Clear,0,2012-12-12 07:16:00
1:35 AM,28.4,12.2,51,30.19,10.0,South,4.6,-,N/A,,Clear,180,2012-12-12 07:35:00
1:55 AM,26.6,12.2,55,30.20,10.0,South,3.5,-,N/A,,Clear,180,2012-12-12 07:55:00
2:16 AM,26.6,12.2,55,30.20,10.0,South,3.5,-,N/A,,Clear,170,2012-12-12 08:16:00
2:35 AM,24.8,12.2,59,30.19,10.0,SSE,3.5,-,N/A,,Clear,160,2012-12-12 08:35:00
2:55 AM,24.8,14.0,64,30.19,10.0,SSE,3.5,-,N/A,,Clear,160,2012-12-12 08:55:00
3:35 AM,24.8,12.2,59,30.20,10.0,Calm,Calm,-,N/A,,Clear,0,2012-12-12 09:35:00
3:55 AM,26.6,12.2,55,30.20,10.0,SSE,3.5,-,N/A,,Clear,160,2012-12-12 09:55:00
4:15 AM,24.8,12.2,59,30.20,10.0,SSE,4.6,-,N/A,,Clear,160,2012-12-12 10:15:00
4:35 AM,24.8,12.2,59,30.19,10.0,SSE,3.5,-,N/A,,Clear,160,2012-12-12 10:35:00
4:55 AM,26.6,12.2,55,30.20,10.0,SSE,3.5,-,N/A,,Clear,160,2012-12-12 10:55:00
5:15 AM,24.8,12.2,59,30.20,10.0,SSE,4.6,-,N/A,,Clear,150,2012-12-12 11:15:00
5:55 AM,26.6,15.8,64,30.22,10.0,Calm,Calm,-,N/A,,Clear,0,2012-12-12 11:55:00
6:15 AM,23.0,15.8,74,30.23,10.0,Calm,Calm,-,N/A,,Clear,0,2012-12-12 12:15:00
6:55 AM,23.0,12.2,63,30.24,10.0,Calm,Calm,-,N/A,,Clear,0,2012-12-12 12:55:00
7:15 AM,24.8,12.2,59,30.24,10.0,Calm,Calm,-,N/A,,Clear,0,2012-12-12 13:15:00
7:35 AM,24.8,12.2,59,30.24,10.0,SSE,3.5,-,N/A,,Clear,160,2012-12-12 13:35:00
7:56 AM,24.8,15.8,69,30.25,10.0,SSE,3.5,-,N/A,,Clear,150,2012-12-12 13:56:00
8:15 AM,28.4,17.6,64,30.26,10.0,Calm,Calm,-,N/A,,Clear,0,2012-12-12 14:15:00
8:35 AM,30.2,19.4,64,30.27,10.0,South,4.6,-,N/A,,Clear,170,2012-12-12 14:35:00
9:15 AM,35.6,17.6,48,30.28,10.0,South,5.8,-,N/A,,Clear,180,2012-12-12 15:15:00
9:35 AM,37.4,19.4,48,30.28,10.0,South,8.1,-,N/A,,Clear,180,2012-12-12 15:35:00
10:35 AM,42.8,17.6,36,30.27,10.0,South,11.5,16.1,N/A,,Clear,180,2012-12-12 16:35:00
10:56 AM,42.8,17.6,36,30.28,10.0,South,11.5,-,N/A,,Clear,190,2012-12-12 16:56:00
11:15 AM,44.6,17.6,34,30.27,10.0,South,9.2,-,N/A,,Clear,190,2012-12-12 17:15:00
11:35 AM,46.4,17.6,32,30.27,10.0,SSW,8.1,-,N/A,,Clear,200,2012-12-12 17:35:00
12:15 PM,48.2,17.6,30,30.25,10.0,SSW,9.2,-,N/A,,Clear,210,2012-12-12 18:15:00
12:35 PM,48.2,15.8,27,30.24,10.0,SSW,12.7,17.3,N/A,,Clear,210,2012-12-12 18:35:00
1:15 PM,50.0,14.0,24,30.23,10.0,SSW,8.1,17.3,N/A,,Clear,210,2012-12-12 19:15:00
1:35 PM,50.0,15.8,26,30.22,10.0,SSW,11.5,16.1,N/A,,Clear,210,2012-12-12 19:35:00
1:56 PM,51.8,14.0,22,30.21,10.0,South,12.7,18.4,N/A,,Clear,190,2012-12-12 19:56:00
2:15 PM,50.0,12.2,22,30.21,10.0,South,13.8,19.6,N/A,,Clear,190,2012-12-12 20:15:00
2:56 PM,50.0,10.4,20,30.20,10.0,South,10.4,19.6,N/A,,Clear,190,2012-12-12 20:56:00
3:15 PM,50.0,10.4,20,30.21,10.0,SSW,9.2,18.4,N/A,,Clear,200,2012-12-12 21:15:00
3:35 PM,50.0,10.4,20,30.22,10.0,SSW,10.4,-,N/A,,Clear,200,2012-12-12 21:35:00
4:15 PM,48.2,10.4,22,30.20,10.0,South,8.1,-,N/A,,Clear,180,2012-12-12 22:15:00
4:35 PM,48.2,10.4,22,30.21,10.0,South,8.1,-,N/A,,Clear,190,2012-12-12 22:35:00
4:55 PM,46.4,12.2,25,30.21,10.0,SSW,5.8,-,N/A,,Clear,200,2012-12-12 22:55:00
5:15 PM,44.6,12.2,27,30.21,10.0,SSW,5.8,-,N/A,,Clear,200,2012-12-12 23:15:00
5:16 PM,44.6,12.2,27,30.21,10.0,South,5.8,-,N/A,,Clear,190,2012-12-12 23:16:00
5:35 PM,41.0,12.2,31,30.20,10.0,South,5.8,-,N/A,,Clear,170,2012-12-12 23:35:00
6:16 PM,37.4,12.2,36,30.20,10.0,SSE,6.9,-,N/A,,Clear,150,2012-12-13 00:16:00
6:35 PM,37.4,12.2,36,30.20,10.0,SSE,6.9,-,N/A,,Clear,150,2012-12-13 00:35:00
6:55 PM,33.8,14.0,44,30.19,10.0,SE,9.2,-,N/A,,Clear,140,2012-12-13 00:55:00
7:15 PM,35.6,14.0,41,30.19,10.0,SSE,8.1,-,N/A,,Clear,150,2012-12-13 01:15:00
7:35 PM,35.6,14.0,41,30.20,10.0,SSE,6.9,-,N/A,,Clear,150,2012-12-13 01:35:00
8:15 PM,33.8,15.8,48,30.21,10.0,SE,6.9,-,N/A,,Clear,140,2012-12-13 02:15:00
8:36 PM,32.0,15.8,51,30.21,10.0,SE,6.9,-,N/A,,Clear,140,2012-12-13 02:36:00
8:55 PM,33.8,15.8,48,30.21,10.0,SE,6.9,-,N/A,,Clear,140,2012-12-13 02:55:00
9:35 PM,33.8,15.8,48,30.21,10.0,SE,8.1,-,N/A,,Clear,140,2012-12-13 03:35:00
9:55 PM,33.8,17.6,52,30.20,10.0,SE,9.2,-,N/A,,Clear,140,2012-12-13 03:55:00
10:15 PM,33.8,17.6,52,30.20,10.0,SSE,6.9,-,N/A,,Clear,150,2012-12-13 04:15:00
10:35 PM,35.6,17.6,48,30.21,10.0,South,6.9,-,N/A,,Clear,170,2012-12-13 04:35:00
11:15 PM,35.6,15.8,44,30.21,10.0,South,6.9,-,N/A,,Clear,180,2012-12-13 05:15:00
11:55 PM,35.6,15.8,44,30.22,10.0,South,5.8,-,N/A,,Clear,180,2012-12-13 05:55:00